LTCF Airport Information

Runway Information
Runway 06 Length 11483 ft width 148 ft
Elevation 5873 ft Threshold 0 ft Heading 64
Runway 24 Length 11483 ft Width 148 ft
Elevation 5869 ft Threshold 0 ft Heading 244
Airport Frequencies
Type TWR Name TWR Frequency 122.4 MHZ
Airport Navaids
Type VOR-DME Name Kars Frequency 113800 KHZ
Type NDB Name Kars Frequency 431 KHZ
Airport Weather Information & NOTAM
ADDS - METARS form results

(1816 UTC 18 March 2019)
Data provider http://aviationweather.gov/metar/data/
 
METAR text: LTCF 181750Z 11005KT 9999 SCT035 BKN070 M06/M10 Q1017
Conditions at: LTCF (KARS , TR) observed 1750 UTC 18 March 2019
Temperature: -6.0°C (21°F)
Dewpoint: -10.0°C (14°F) [RH = 73%]
Pressure (altimeter): 30.03 inches Hg (1017.0 mb)
Winds: from the ESE (110 degrees) at 6 MPH (5 knots; 2.6 m/s)
Visibility: 6 or more miles (10+ km)
Ceiling: 7000 feet AGL
Clouds: scattered clouds at 3500 feet AGL
broken clouds at 7000 feet AGL
Weather: no significant weather observed at this time

Forecast for: LTCF (KARS , TR)
Text: TAF LTCF 181640Z 1818/1903 VRB02KT 9999 SCT035 BKN070
Forecast period: 1800 UTC 18 March 2019 to 0300 UTC 19 March 2019
Forecast type: FROM: standard forecast or significant change
Winds: variable direction winds at 2 MPH (2 knots; 1.0 m/s)
Visibility: 6 or more miles 10+ km)
Ceiling: 7000 feet AGL
Clouds: scattered clouds at 3500 feet AGL
broken clouds at 7000 feet AGL
Weather: no significant weather forecast for this period